createdAt,value
2024-02-11T00:00:42.471Z,25.47
2024-02-11T00:03:09.654Z,24.60
2024-02-11T00:05:36.673Z,25.73
2024-02-11T00:08:03.730Z,26.53
2024-02-11T00:10:30.867Z,25.80
2024-02-11T00:12:58.571Z,26.63
2024-02-11T00:15:25.789Z,24.40
2024-02-11T00:17:53.449Z,26.60
2024-02-11T00:20:20.656Z,26.70
2024-02-11T00:22:50.350Z,25.70
2024-02-11T00:25:18.228Z,25.30
2024-02-11T00:27:50.973Z,22.83
2024-02-11T00:30:18.444Z,24.80
2024-02-11T00:32:46.330Z,26.20
2024-02-11T00:35:16.781Z,24.03
2024-02-11T00:37:44.039Z,24.80
2024-02-11T00:40:13.907Z,23.63
2024-02-11T00:42:40.874Z,24.33
2024-02-11T00:45:08.311Z,23.10
2024-02-11T00:47:36.938Z,25.43
2024-02-11T00:50:04.592Z,23.63
2024-02-11T00:52:31.700Z,24.47
2024-02-11T00:54:58.594Z,24.93
2024-02-11T00:57:25.456Z,23.50
2024-02-11T00:59:52.304Z,25.67
2024-02-11T01:02:19.704Z,24.13
2024-02-11T01:04:46.898Z,23.73
2024-02-11T01:07:13.970Z,23.57
2024-02-11T01:09:41.285Z,23.13
2024-02-11T01:12:08.242Z,22.67
2024-02-11T01:14:35.247Z,24.00
2024-02-11T01:17:02.344Z,23.00
2024-02-11T01:19:29.330Z,22.33
2024-02-11T01:21:56.288Z,23.20
2024-02-11T01:24:23.494Z,22.70
2024-02-11T01:26:50.900Z,23.30
2024-02-11T01:29:19.890Z,21.70
2024-02-11T01:31:48.283Z,22.90
2024-02-11T01:34:17.087Z,23.67
2024-02-11T01:36:46.126Z,22.60
2024-02-11T01:39:13.570Z,21.90
2024-02-11T01:41:40.679Z,23.60
2024-02-11T01:44:07.714Z,20.20
2024-02-11T01:46:35.485Z,19.77
2024-02-11T01:49:06.086Z,23.23
2024-02-11T01:51:35.531Z,22.97
2024-02-11T01:54:05.108Z,23.00
2024-02-11T01:56:33.918Z,23.97
2024-02-11T01:59:01.823Z,24.17
2024-02-11T02:01:29.216Z,23.30
2024-02-11T02:03:57.295Z,23.57
2024-02-11T02:06:25.212Z,24.63
2024-02-11T02:08:53.921Z,24.30
2024-02-11T02:11:23.118Z,23.97
2024-02-11T02:13:50.145Z,25.10
2024-02-11T02:16:17.132Z,23.07
2024-02-11T02:18:47.468Z,23.40
2024-02-11T02:21:14.478Z,22.23
2024-02-11T02:23:41.407Z,25.03
2024-02-11T02:26:09.305Z,25.70
2024-02-11T02:28:37.398Z,25.80
2024-02-11T02:31:06.909Z,24.00
2024-02-11T02:33:37.846Z,25.73
2024-02-11T02:36:05.588Z,26.67
2024-02-11T02:38:34.086Z,26.20
2024-02-11T02:41:01.505Z,26.20
2024-02-11T02:43:29.266Z,27.30
2024-02-11T02:45:56.114Z,26.73
2024-02-11T02:48:23.750Z,27.07
2024-02-11T02:50:51.011Z,25.97
2024-02-11T02:53:18.059Z,24.20
2024-02-11T02:55:45.028Z,26.17
2024-02-11T02:58:15.256Z,27.90
2024-02-11T03:00:42.986Z,26.53
2024-02-11T03:03:10.150Z,27.50
2024-02-11T03:05:41.771Z,26.27
2024-02-11T03:08:09.121Z,25.17
2024-02-11T03:10:36.337Z,27.40
2024-02-11T03:13:03.480Z,27.63
2024-02-11T03:15:31.207Z,27.77
2024-02-11T03:17:59.814Z,27.63
2024-02-11T03:20:29.085Z,26.43
2024-02-11T03:22:56.140Z,27.50
2024-02-11T03:25:23.287Z,28.20
2024-02-11T03:27:54.446Z,29.87
2024-02-11T03:30:24.974Z,30.63
2024-02-11T03:32:52.927Z,28.73
2024-02-11T03:35:21.205Z,28.20
2024-02-11T03:37:48.686Z,29.13
2024-02-11T03:40:20.516Z,29.13
2024-02-11T03:42:47.510Z,29.00
2024-02-11T03:45:16.897Z,26.77
2024-02-11T03:47:44.661Z,29.00
2024-02-11T03:50:12.543Z,27.70
2024-02-11T03:52:39.612Z,28.27
2024-02-11T03:55:13.213Z,29.60
2024-02-11T03:57:40.462Z,28.83
2024-02-11T04:00:26.860Z,30.23
2024-02-11T04:02:54.088Z,30.27
2024-02-11T04:05:23.956Z,30.80
2024-02-11T04:07:51.617Z,31.27
2024-02-11T04:10:29.755Z,32.10
2024-02-11T04:13:00.024Z,30.97
2024-02-11T04:15:28.548Z,30.60
2024-02-11T04:17:58.151Z,32.93
2024-02-11T04:20:26.657Z,31.87
2024-02-11T04:23:00.139Z,32.13
2024-02-11T04:25:35.679Z,31.00
2024-02-11T04:28:04.464Z,31.23
2024-02-11T04:30:31.655Z,31.13
2024-02-11T04:33:04.669Z,31.03
2024-02-11T04:35:36.267Z,31.87
2024-02-11T04:38:14.217Z,35.17
2024-02-11T04:40:42.776Z,33.70
2024-02-11T04:43:09.941Z,35.93
2024-02-11T04:45:39.028Z,33.77
2024-02-11T04:48:06.806Z,34.07
2024-02-11T04:50:36.367Z,31.90
2024-02-11T04:53:04.962Z,33.33
2024-02-11T04:55:44.991Z,32.30
2024-02-11T04:58:16.954Z,33.47
2024-02-11T05:00:46.963Z,31.67
2024-02-11T05:03:18.992Z,32.80
2024-02-11T05:05:48.384Z,34.17
2024-02-11T05:08:18.379Z,33.47
2024-02-11T05:10:47.012Z,36.87
2024-02-11T05:13:15.570Z,33.90
2024-02-11T05:15:44.094Z,32.70
2024-02-11T05:18:19.846Z,34.73
2024-02-11T05:20:47.331Z,35.53
2024-02-11T05:23:14.538Z,35.73
2024-02-11T05:25:45.241Z,35.20
2024-02-11T05:28:17.693Z,33.63
2024-02-11T05:30:51.339Z,34.30
2024-02-11T05:33:20.779Z,35.43
2024-02-11T05:35:50.505Z,36.70
2024-02-11T05:38:21.581Z,35.57
2024-02-11T05:40:51.790Z,32.40
2024-02-11T05:43:20.836Z,33.40
2024-02-11T05:45:48.094Z,33.87
2024-02-11T05:48:15.704Z,36.60
2024-02-11T05:50:43.430Z,34.70
2024-02-11T05:53:10.714Z,33.70
2024-02-11T05:55:39.395Z,33.97
2024-02-11T05:58:06.500Z,33.90
2024-02-11T06:00:37.908Z,32.30
2024-02-11T06:03:05.633Z,33.23
2024-02-11T06:05:32.985Z,33.67
2024-02-11T06:08:01.564Z,31.47
2024-02-11T06:10:35.301Z,31.23
2024-02-11T06:13:07.120Z,31.20
2024-02-11T06:15:38.761Z,30.80
2024-02-11T06:18:06.058Z,30.03
2024-02-11T06:20:33.557Z,31.57
2024-02-11T06:23:01.630Z,31.77
2024-02-11T06:25:28.694Z,30.47
2024-02-11T06:27:55.594Z,31.37
2024-02-11T06:30:23.140Z,31.50
2024-02-11T06:32:52.339Z,31.20
2024-02-11T06:35:20.813Z,31.23
2024-02-11T06:37:50.211Z,28.90
2024-02-11T06:40:24.582Z,32.03
2024-02-11T06:42:52.415Z,31.60
2024-02-11T06:45:20.522Z,32.07
2024-02-11T06:47:48.856Z,31.67
2024-02-11T06:50:17.466Z,32.40
2024-02-11T06:52:46.100Z,31.20
2024-02-11T06:55:15.092Z,33.23
2024-02-11T06:57:41.995Z,30.83
2024-02-11T07:00:13.498Z,32.40
2024-02-11T07:02:41.369Z,30.87
2024-02-11T07:05:12.192Z,30.97
2024-02-11T07:07:45.709Z,31.40
2024-02-11T07:10:14.988Z,30.20
2024-02-11T07:12:43.181Z,30.50
2024-02-11T07:15:10.464Z,31.03
2024-02-11T07:17:39.361Z,29.47
2024-02-11T07:20:07.282Z,30.70
2024-02-11T07:22:35.531Z,29.60
2024-02-11T07:25:02.712Z,30.30
2024-02-11T07:27:30.495Z,29.33
2024-02-11T07:29:57.380Z,29.60
2024-02-11T07:32:24.449Z,29.60
2024-02-11T07:34:51.706Z,29.10
2024-02-11T07:37:19.962Z,27.60
2024-02-11T07:39:47.125Z,30.83
2024-02-11T07:42:14.053Z,28.10
2024-02-11T07:44:40.922Z,28.00
2024-02-11T07:47:08.920Z,28.40
2024-02-11T07:49:36.136Z,28.67
2024-02-11T07:52:03.651Z,27.00
2024-02-11T07:54:32.524Z,27.53
2024-02-11T07:56:59.477Z,25.43
2024-02-11T07:59:26.949Z,27.53
2024-02-11T08:01:56.524Z,26.57
2024-02-11T08:04:23.628Z,25.37
2024-02-11T08:06:50.594Z,23.23
2024-02-11T08:09:17.477Z,24.70
2024-02-11T08:11:45.480Z,24.43
2024-02-11T08:14:12.680Z,24.70
2024-02-11T08:16:40.166Z,23.70
2024-02-11T08:19:10.321Z,24.47
2024-02-11T08:21:37.617Z,26.60
2024-02-11T08:24:04.871Z,26.50
2024-02-11T08:26:31.858Z,25.83
2024-02-11T08:29:02.654Z,28.00
2024-02-11T08:31:30.465Z,26.50
2024-02-11T08:33:59.289Z,24.20
2024-02-11T08:36:26.485Z,24.17
2024-02-11T08:38:53.310Z,22.20
2024-02-11T08:41:21.350Z,19.93
2024-02-11T08:43:48.496Z,20.93
2024-02-11T08:46:15.391Z,20.73
2024-02-11T08:48:42.601Z,22.40
2024-02-11T08:51:12.091Z,21.97
2024-02-11T08:53:38.954Z,20.93
2024-02-11T08:56:09.166Z,20.37
2024-02-11T08:58:37.485Z,23.50
2024-02-11T09:01:06.784Z,23.00
2024-02-11T09:03:33.770Z,23.73
2024-02-11T09:06:02.122Z,24.10
2024-02-11T09:08:29.251Z,25.23
2024-02-11T09:10:56.328Z,22.73
2024-02-11T09:13:23.809Z,23.37
2024-02-11T09:15:50.783Z,22.43
2024-02-11T09:18:21.141Z,21.50
2024-02-11T09:20:48.301Z,22.13
2024-02-11T09:23:15.593Z,21.50
2024-02-11T09:25:43.707Z,20.77
2024-02-11T09:28:11.758Z,20.93
2024-02-11T09:30:43.283Z,20.60
2024-02-11T09:33:11.104Z,19.63
2024-02-11T09:35:39.132Z,19.00
2024-02-11T09:38:06.560Z,20.27
2024-02-11T09:40:34.946Z,18.93
2024-02-11T09:43:03.828Z,18.97
2024-02-11T09:45:32.278Z,18.93
2024-02-11T09:48:01.696Z,16.97
2024-02-11T09:50:30.650Z,17.67
2024-02-11T09:52:57.763Z,19.80
2024-02-11T09:55:24.718Z,17.50
2024-02-11T09:57:52.000Z,17.10
2024-02-11T10:00:21.148Z,16.60
2024-02-11T10:02:50.544Z,18.20
2024-02-11T10:05:20.044Z,18.07
2024-02-11T10:07:47.680Z,19.10
2024-02-11T10:10:16.820Z,18.50
2024-02-11T10:12:44.789Z,14.53
2024-02-11T10:15:13.554Z,17.10
2024-02-11T10:17:42.755Z,14.80
2024-02-11T10:20:11.201Z,17.23
2024-02-11T10:22:38.378Z,16.37
2024-02-11T10:25:12.943Z,19.67
2024-02-11T10:27:41.165Z,17.77
2024-02-11T10:30:15.028Z,16.70
2024-02-11T10:32:43.168Z,17.57
2024-02-11T10:35:13.222Z,17.23
2024-02-11T10:37:44.521Z,17.30
2024-02-11T10:40:13.014Z,17.17
2024-02-11T10:42:42.087Z,15.37
2024-02-11T10:45:12.105Z,15.73
2024-02-11T10:47:40.081Z,14.73
2024-02-11T10:50:08.023Z,16.00
2024-02-11T10:52:43.775Z,15.83
2024-02-11T10:55:12.855Z,14.67
2024-02-11T10:57:56.089Z,14.40
2024-02-11T11:00:25.767Z,14.23
2024-02-11T11:03:00.055Z,13.80
2024-02-11T11:05:32.387Z,14.77
2024-02-11T11:08:01.994Z,15.27
2024-02-11T11:10:39.030Z,14.90
2024-02-11T11:13:06.903Z,14.90
2024-02-11T11:15:35.186Z,15.33
2024-02-11T11:18:03.926Z,16.00
2024-02-11T11:20:35.170Z,15.00
2024-02-11T11:23:03.939Z,14.40
2024-02-11T11:25:35.752Z,15.70
2024-02-11T11:28:11.717Z,15.37
2024-02-11T11:30:39.027Z,14.90
2024-02-11T11:33:06.554Z,13.80
2024-02-11T11:35:33.888Z,13.20
2024-02-11T11:38:02.130Z,12.60
2024-02-11T11:40:29.834Z,11.67
2024-02-11T11:42:57.250Z,9.63
2024-02-11T11:45:24.041Z,8.60
2024-02-11T11:47:52.375Z,9.63
2024-02-11T11:50:20.840Z,9.17
2024-02-11T11:52:59.072Z,9.40
2024-02-11T11:55:25.967Z,9.73
2024-02-11T11:57:59.571Z,10.60
2024-02-11T12:00:26.472Z,9.90
2024-02-11T12:02:54.617Z,12.20
2024-02-11T12:05:21.811Z,11.17
2024-02-11T12:07:49.724Z,11.33
2024-02-11T12:10:17.996Z,14.40
2024-02-11T12:12:44.974Z,15.50
2024-02-11T12:15:12.059Z,13.87
2024-02-11T12:17:39.070Z,13.33
2024-02-11T12:20:10.892Z,12.17
2024-02-11T12:22:39.506Z,13.17
2024-02-11T12:25:07.357Z,13.33
2024-02-11T12:27:34.572Z,12.87
2024-02-11T12:30:02.428Z,14.27
2024-02-11T12:32:31.176Z,12.07
2024-02-11T12:34:59.585Z,13.00
2024-02-11T12:37:29.849Z,13.17
2024-02-11T12:39:58.378Z,13.60
2024-02-11T12:42:26.875Z,12.27
2024-02-11T12:44:54.847Z,12.73
2024-02-11T12:47:22.275Z,13.90
2024-02-11T12:49:49.348Z,13.13
2024-02-11T12:52:17.884Z,17.30
2024-02-11T12:54:44.927Z,26.90
2024-02-11T12:57:11.840Z,16.70
2024-02-11T12:59:39.289Z,13.20
2024-02-11T13:02:06.228Z,13.90
2024-02-11T13:04:33.445Z,11.80
2024-02-11T13:07:00.816Z,12.00
2024-02-11T13:09:27.813Z,9.70
2024-02-11T13:11:55.258Z,11.83
2024-02-11T13:14:23.618Z,10.23
2024-02-11T13:16:50.637Z,10.20
2024-02-11T13:19:19.212Z,9.93
2024-02-11T13:21:50.483Z,10.13
2024-02-11T13:24:19.912Z,9.77
2024-02-11T13:26:46.804Z,10.00
2024-02-11T13:29:13.907Z,9.20
2024-02-11T13:31:43.051Z,9.93
2024-02-11T13:34:10.413Z,10.67
2024-02-11T13:36:37.387Z,11.70
2024-02-11T13:39:04.256Z,13.13
2024-02-11T13:41:31.396Z,14.80
2024-02-11T13:43:58.721Z,12.77
2024-02-11T13:46:25.824Z,12.60
2024-02-11T13:48:53.052Z,11.53
2024-02-11T13:51:20.256Z,15.17
2024-02-11T13:53:47.491Z,11.27
2024-02-11T13:56:14.630Z,13.77
2024-02-11T13:58:43.790Z,13.77
2024-02-11T14:01:12.691Z,13.10
2024-02-11T14:03:42.632Z,13.13
2024-02-11T14:06:13.971Z,23.87
2024-02-11T14:08:41.677Z,13.70
2024-02-11T14:11:08.651Z,15.23
2024-02-11T14:13:35.555Z,14.80
2024-02-11T14:16:03.548Z,13.37
2024-02-11T14:18:30.570Z,16.07
2024-02-11T14:20:57.880Z,15.23
2024-02-11T14:23:25.905Z,15.30
2024-02-11T14:25:53.411Z,14.37
2024-02-11T14:28:20.274Z,14.33
2024-02-11T14:30:47.411Z,16.87
2024-02-11T14:33:14.430Z,16.53
2024-02-11T14:35:41.406Z,16.70
2024-02-11T14:38:08.593Z,15.73
2024-02-11T14:40:36.298Z,16.47
2024-02-11T14:43:03.688Z,20.10
2024-02-11T14:45:30.782Z,18.00
2024-02-11T14:47:58.306Z,16.33
2024-02-11T14:50:26.098Z,18.33
2024-02-11T14:52:53.231Z,17.33
2024-02-11T14:55:20.471Z,17.60
2024-02-11T14:57:48.069Z,17.20
2024-02-11T15:00:16.571Z,17.30
2024-02-11T15:02:43.628Z,17.67
2024-02-11T15:05:11.587Z,18.23
2024-02-11T15:07:38.918Z,16.87
2024-02-11T15:10:06.663Z,16.50
2024-02-11T15:12:33.829Z,18.30
2024-02-11T15:15:01.951Z,17.10
2024-02-11T15:17:30.423Z,18.70
2024-02-11T15:19:59.336Z,18.90
2024-02-11T15:22:26.507Z,24.60
2024-02-11T15:24:53.671Z,19.20
2024-02-11T15:27:21.217Z,18.30
2024-02-11T15:29:48.447Z,16.60
2024-02-11T15:32:15.557Z,19.10
2024-02-11T15:34:42.709Z,18.33
2024-02-11T15:37:10.051Z,18.20
2024-02-11T15:39:37.495Z,20.10
2024-02-11T15:42:08.535Z,19.10
2024-02-11T15:44:38.431Z,19.77
2024-02-11T15:47:07.687Z,21.97
2024-02-11T15:49:38.859Z,19.77
2024-02-11T15:52:07.432Z,18.67
2024-02-11T15:54:34.349Z,29.30
2024-02-11T15:57:01.222Z,23.70
2024-02-11T15:59:29.428Z,26.97
2024-02-11T16:01:57.029Z,26.33
2024-02-11T16:04:26.415Z,31.60
2024-02-11T16:06:55.347Z,26.67
2024-02-11T16:09:22.303Z,18.53
2024-02-11T16:11:53.735Z,21.07
2024-02-11T16:14:24.375Z,19.83
2024-02-11T16:16:51.402Z,20.90
2024-02-11T16:19:18.874Z,20.20
2024-02-11T16:21:46.456Z,18.97
2024-02-11T16:24:15.043Z,21.10
2024-02-11T16:26:45.242Z,19.30
2024-02-11T16:29:13.150Z,19.40
2024-02-11T16:31:46.844Z,21.03
2024-02-11T16:34:14.647Z,19.73
2024-02-11T16:36:42.310Z,21.63
2024-02-11T16:39:09.538Z,22.50
2024-02-11T16:41:40.237Z,21.87
2024-02-11T16:44:10.568Z,21.73
2024-02-11T16:46:38.186Z,22.87
2024-02-11T16:49:06.475Z,23.90
2024-02-11T16:51:34.047Z,24.20
2024-02-11T16:54:01.084Z,21.23
2024-02-11T16:56:28.408Z,23.23
2024-02-11T16:58:55.760Z,21.73
2024-02-11T17:01:22.833Z,22.83
2024-02-11T17:03:50.254Z,21.60
2024-02-11T17:06:18.478Z,22.80
2024-02-11T17:08:45.613Z,22.47
2024-02-11T17:11:14.758Z,22.70
2024-02-11T17:13:41.832Z,23.87
2024-02-11T17:16:08.640Z,22.90
2024-02-11T17:18:35.656Z,25.30
2024-02-11T17:21:10.966Z,26.17
2024-02-11T17:23:39.714Z,27.63
2024-02-11T17:26:08.941Z,28.67
2024-02-11T17:28:36.637Z,25.57
2024-02-11T17:31:04.505Z,24.40
2024-02-11T17:33:31.591Z,24.73
2024-02-11T17:35:59.633Z,24.17
2024-02-11T17:38:30.396Z,23.93
2024-02-11T17:40:58.482Z,25.53
2024-02-11T17:43:28.940Z,24.13
2024-02-11T17:45:57.878Z,25.70
2024-02-11T17:48:24.947Z,25.23
2024-02-11T17:50:56.608Z,24.63
2024-02-11T17:53:27.979Z,24.37
2024-02-11T17:56:02.057Z,23.57
2024-02-11T17:58:29.493Z,24.57
2024-02-11T18:00:58.043Z,24.20
2024-02-11T18:03:29.341Z,22.10
2024-02-11T18:05:56.680Z,23.23
2024-02-11T18:08:24.042Z,23.93
2024-02-11T18:10:53.812Z,24.73
2024-02-11T18:13:21.613Z,22.57
2024-02-11T18:15:48.480Z,22.70
2024-02-11T18:18:15.661Z,22.60
2024-02-11T18:20:43.364Z,22.70
2024-02-11T18:23:11.025Z,21.80
2024-02-11T18:25:54.574Z,24.63
2024-02-11T18:28:26.409Z,23.90
2024-02-11T18:30:55.806Z,22.73
2024-02-11T18:33:22.772Z,23.83
2024-02-11T18:35:49.674Z,23.70
2024-02-11T18:38:17.240Z,23.23
2024-02-11T18:40:44.538Z,23.30
2024-02-11T18:43:11.758Z,22.80
2024-02-11T18:45:38.858Z,21.20
2024-02-11T18:48:06.099Z,21.10
2024-02-11T18:50:33.610Z,22.60
2024-02-11T18:53:01.359Z,22.77
2024-02-11T18:55:28.219Z,21.10
2024-02-11T18:57:55.139Z,22.87
2024-02-11T19:00:22.207Z,21.13
2024-02-11T19:02:49.930Z,21.47
2024-02-11T19:05:17.523Z,22.90
2024-02-11T19:07:45.181Z,22.70
2024-02-11T19:10:19.294Z,20.90
2024-02-11T19:12:46.723Z,22.10
2024-02-11T19:15:13.758Z,23.00
2024-02-11T19:17:40.660Z,25.87
2024-02-11T19:20:10.018Z,24.37
2024-02-11T19:22:38.519Z,23.20
2024-02-11T19:25:08.243Z,23.33
2024-02-11T19:27:36.688Z,24.50
2024-02-11T19:30:07.463Z,23.50
2024-02-11T19:32:40.706Z,21.60
2024-02-11T19:35:08.995Z,22.23
2024-02-11T19:37:40.089Z,23.00
2024-02-11T19:40:11.961Z,21.00
2024-02-11T19:42:41.821Z,24.97
2024-02-11T19:45:09.425Z,24.23
2024-02-11T19:47:37.276Z,24.70
2024-02-11T19:50:06.105Z,29.20
2024-02-11T19:52:34.441Z,24.17
2024-02-11T19:55:02.732Z,23.87
2024-02-11T19:57:29.833Z,24.43
2024-02-11T19:59:58.005Z,21.83
2024-02-11T20:02:27.880Z,24.27
2024-02-11T20:04:55.728Z,23.93
2024-02-11T20:07:26.232Z,23.57
2024-02-11T20:09:53.814Z,25.33
2024-02-11T20:12:23.529Z,24.33
2024-02-11T20:14:51.898Z,22.97
2024-02-11T20:17:19.313Z,23.47
2024-02-11T20:19:47.113Z,23.60
2024-02-11T20:22:14.283Z,24.50
2024-02-11T20:24:41.634Z,23.13
2024-02-11T20:27:11.415Z,24.07
2024-02-11T20:29:39.962Z,22.87
2024-02-11T20:32:10.215Z,22.40
2024-02-11T20:34:42.439Z,24.70
2024-02-11T20:37:09.634Z,23.67
2024-02-11T20:39:36.595Z,24.23
2024-02-11T20:42:05.097Z,24.50
2024-02-11T20:44:34.359Z,24.03
2024-02-11T20:47:01.416Z,24.50
2024-02-11T20:49:28.556Z,24.30
2024-02-11T20:51:55.564Z,23.30
2024-02-11T20:54:22.500Z,24.10
2024-02-11T20:56:49.599Z,23.80
2024-02-11T20:59:17.967Z,22.07
2024-02-11T21:01:44.987Z,23.30
2024-02-11T21:04:12.718Z,23.00
2024-02-11T21:06:42.786Z,21.80
2024-02-11T21:09:12.493Z,22.50
2024-02-11T21:11:39.847Z,23.13
2024-02-11T21:14:10.057Z,21.63
2024-02-11T21:16:40.111Z,25.73
2024-02-11T21:19:10.011Z,22.27
2024-02-11T21:21:40.282Z,23.10
2024-02-11T21:24:11.479Z,21.33
2024-02-11T21:26:38.622Z,22.33
2024-02-11T21:29:05.506Z,23.63
2024-02-11T21:31:34.384Z,22.47
2024-02-11T21:34:01.794Z,30.67
2024-02-11T21:36:28.799Z,29.20
2024-02-11T21:38:55.686Z,31.60
2024-02-11T21:41:22.680Z,36.17
2024-02-11T21:43:50.991Z,37.47
2024-02-11T21:46:19.100Z,34.60
2024-02-11T21:48:46.860Z,31.87
2024-02-11T21:51:13.994Z,31.80
2024-02-11T21:53:41.641Z,25.03
2024-02-11T21:56:09.749Z,23.23
2024-02-11T21:58:39.953Z,23.37
2024-02-11T22:01:08.353Z,21.17
2024-02-11T22:03:35.352Z,22.10
2024-02-11T22:06:02.351Z,20.80
2024-02-11T22:08:30.733Z,21.40
2024-02-11T22:10:57.769Z,20.30
2024-02-11T22:13:24.769Z,20.63
2024-02-11T22:15:51.675Z,21.00
2024-02-11T22:18:18.532Z,18.90
2024-02-11T22:20:47.639Z,19.47
2024-02-11T22:23:14.565Z,18.80
2024-02-11T22:25:41.451Z,18.20
2024-02-11T22:28:08.367Z,17.93
2024-02-11T22:30:35.237Z,17.80
2024-02-11T22:33:02.322Z,16.27
2024-02-11T22:35:29.354Z,17.30
2024-02-11T22:37:56.538Z,17.20
2024-02-11T22:40:23.706Z,17.70
2024-02-11T22:42:50.527Z,17.47
2024-02-11T22:45:18.444Z,16.27
2024-02-11T22:47:46.233Z,18.37
2024-02-11T22:50:15.310Z,17.80
2024-02-11T22:52:42.191Z,16.90
2024-02-11T22:55:11.933Z,17.63
2024-02-11T22:57:39.536Z,16.90
2024-02-11T23:00:26.477Z,17.10
2024-02-11T23:02:54.201Z,16.00
2024-02-11T23:05:23.280Z,16.33
2024-02-11T23:07:51.333Z,16.43
2024-02-11T23:10:23.428Z,15.40
2024-02-11T23:12:51.049Z,14.90
2024-02-11T23:15:17.886Z,15.30
2024-02-11T23:17:47.045Z,16.50
2024-02-11T23:20:17.326Z,15.03
2024-02-11T23:22:45.961Z,15.60
2024-02-11T23:25:13.237Z,14.57
2024-02-11T23:27:42.033Z,15.10
2024-02-11T23:30:12.187Z,14.20
2024-02-11T23:32:39.347Z,13.53
2024-02-11T23:35:06.728Z,13.13
2024-02-11T23:37:35.466Z,14.50
2024-02-11T23:40:02.561Z,13.37
2024-02-11T23:42:31.131Z,12.20
2024-02-11T23:45:00.020Z,12.80
2024-02-11T23:47:32.238Z,12.93
2024-02-11T23:50:05.534Z,12.20
2024-02-11T23:52:32.802Z,12.20
2024-02-11T23:55:00.591Z,12.73
2024-02-11T23:57:27.657Z,12.47
2024-02-11T23:59:54.749Z,11.73
